Johnnie, Nevada
Current Conditions -  °F | °C
As of 7:52 PM on Tuesday 21 Oct 2014 (Local Time) from KDRA Reporting Station
Clear Clear  
Wind Chill: 61°   Ceiling: Unl
Heat Index: 61°   Visibility: 10mi
Dew Point: 24°   Wind: 5mph
Humidity: 24%   Direction: 90°E
Pressure: 29.9"   Gusts: NA
Location:  36.184°N, 116.002°W
Report Text: KDRA 220252Z AUTO 09004KT 10SM CLR 16/M04 A2990 RMK AO2 SLP095 T01611044 53008
Loading
Personal Weather Stations






























Interactive Weather Map
Tropical Storm Tracking
New forecast layout! Learn more

10-Day Weather Forecast

Advertisements
Track Severe Weather on mobile